createdAt,value
2023-05-10T00:03:53.560Z,11.10
2023-05-10T00:18:53.971Z,5.50
2023-05-10T00:33:53.892Z,9.20
2023-05-10T00:48:54.484Z,6.70
2023-05-10T01:03:55.476Z,7.00
2023-05-10T01:18:55.488Z,6.20
2023-05-10T01:33:55.791Z,7.60
2023-05-10T01:48:57.055Z,6.40
2023-05-10T02:03:57.010Z,7.40
2023-05-10T02:18:57.429Z,7.30
2023-05-10T02:33:57.681Z,8.60
2023-05-10T02:48:58.056Z,8.10
2023-05-10T03:03:58.353Z,6.60
2023-05-10T03:18:58.591Z,46.30
2023-05-10T03:33:58.912Z,1103.00
2023-05-10T03:48:59.647Z,437.10
2023-05-10T04:03:59.615Z,610.40
2023-05-10T04:18:59.831Z,380.60
2023-05-10T04:33:59.930Z,396.30
2023-05-10T04:49:00.421Z,581.10
2023-05-10T05:04:01.233Z,220.40
2023-05-10T05:19:01.375Z,196.00
2023-05-10T05:34:01.281Z,173.00
2023-05-10T05:49:01.898Z,178.70
2023-05-10T06:04:02.535Z,174.20
2023-05-10T06:19:02.855Z,181.10
2023-05-10T06:34:02.911Z,268.20
2023-05-10T06:49:02.941Z,49.70
2023-05-10T07:04:03.041Z,23.90
2023-05-10T07:19:03.583Z,28.40
2023-05-10T07:34:03.707Z,6.40
2023-05-10T07:49:03.760Z,5.90
2023-05-10T08:04:04.072Z,6.90
2023-05-10T08:19:03.999Z,3.20
2023-05-10T08:34:03.928Z,5.90
2023-05-10T08:49:04.120Z,4.40
2023-05-10T09:04:04.185Z,3.70
2023-05-10T09:19:04.540Z,3.80
2023-05-10T09:34:04.418Z,3.60
2023-05-10T09:49:04.528Z,2.30
2023-05-10T10:04:04.620Z,3.80
2023-05-10T10:19:05.300Z,4.30
2023-05-10T10:34:05.281Z,4.80
2023-05-10T10:49:05.585Z,2.50
2023-05-10T11:04:05.821Z,2.60
2023-05-10T11:19:06.253Z,2.70
2023-05-10T11:34:07.026Z,2.30
2023-05-10T11:49:07.125Z,4.20
2023-05-10T12:04:07.324Z,6.40
2023-05-10T12:19:07.435Z,3.60
2023-05-10T12:34:07.367Z,4.00
2023-05-10T12:49:09.743Z,2.00
2023-05-10T13:04:10.721Z,4.80
2023-05-10T13:19:12.207Z,4.80
2023-05-10T13:34:12.225Z,4.30
2023-05-10T13:49:12.279Z,2.80
2023-05-10T14:04:12.309Z,3.40
2023-05-10T14:19:12.771Z,3.20
2023-05-10T14:34:12.771Z,2.70
2023-05-10T14:49:13.481Z,37.50
2023-05-10T15:04:13.683Z,3.70
2023-05-10T15:19:14.951Z,41.20
2023-05-10T15:34:16.042Z,2.10
2023-05-10T15:49:15.911Z,45.20
2023-05-10T16:04:16.243Z,38.50
2023-05-10T16:19:16.338Z,3.90
2023-05-10T16:34:16.368Z,48.80
2023-05-10T16:49:18.275Z,72.40
2023-05-10T17:04:18.561Z,82.10
2023-05-10T17:19:18.522Z,46.70
2023-05-10T17:34:18.972Z,47.10
2023-05-10T17:49:19.167Z,42.10
2023-05-10T18:04:19.675Z,45.20
2023-05-10T18:19:19.553Z,42.40
2023-05-10T18:34:19.751Z,36.00
2023-05-10T18:49:22.182Z,6.50
2023-05-10T19:04:24.105Z,7.30
2023-05-10T19:19:24.470Z,7.90
2023-05-10T19:34:25.425Z,7.10
2023-05-10T19:49:25.482Z,9.40
2023-05-10T20:04:28.489Z,8.00
2023-05-10T20:19:28.972Z,11.80
2023-05-10T20:34:29.187Z,8.90
2023-05-10T20:49:29.368Z,8.70
2023-05-10T21:04:29.613Z,9.60
2023-05-10T21:19:30.035Z,10.00
2023-05-10T21:34:30.390Z,9.90
2023-05-10T21:49:30.612Z,10.50
2023-05-10T22:04:30.973Z,8.80
2023-05-10T22:19:32.178Z,9.80
2023-05-10T22:34:32.443Z,9.10
2023-05-10T22:49:32.923Z,10.10
2023-05-10T23:04:34.244Z,10.30
2023-05-10T23:19:34.245Z,11.40
2023-05-10T23:34:34.183Z,12.00
2023-05-10T23:49:35.591Z,11.40
